Time;durP1;ratioP1;P1;durP2;ratioP2;P2;SDS_P1;SDS_P2;PMS_P1;PMS_P2;Temp;Humidity;BMP_temperature;BMP_pressure;BME280_temperature;BME280_humidity;BME280_pressure;Samples;Min_cycle;Max_cycle;Signal;HPM_P1;HPM_P2
2021/04/02 00:00:34;;;;;;;31.90;22.77;;;13.20;99.90;;;;;;5110120;28;20973;-87
2021/04/02 00:03:03;;;;;;;29.80;24.37;;;13.00;99.90;;;;;;5118805;28;21285;-88
2021/04/02 00:05:29;;;;;;;34.37;22.03;;;12.90;99.90;;;;;;5112448;28;20795;-88
2021/04/02 00:07:55;;;;;;;26.67;21.53;;;12.80;99.90;;;;;;5115628;28;20614;-87
2021/04/02 00:10:23;;;;;;;28.43;22.37;;;12.60;99.90;;;;;;5113121;28;20638;-87
2021/04/02 00:12:50;;;;;;;27.60;22.47;;;12.50;99.90;;;;;;5116483;28;20666;-87
2021/04/02 00:15:18;;;;;;;29.27;22.93;;;12.40;99.90;;;;;;5121862;28;20709;-87
2021/04/02 00:17:46;;;;;;;26.00;21.80;;;12.30;99.90;;;;;;5118968;28;20658;-88
2021/04/02 00:20:15;;;;;;;31.47;25.60;;;12.30;99.90;;;;;;5125753;28;20630;-89
2021/04/02 00:22:42;;;;;;;36.30;28.53;;;12.20;99.90;;;;;;5116719;28;20622;-92
2021/04/02 00:25:10;;;;;;;35.63;25.90;;;12.20;99.90;;;;;;5120316;28;20711;-88
2021/04/02 00:27:36;;;;;;;36.87;28.90;;;12.20;99.90;;;;;;5116109;28;20617;-90
2021/04/02 00:30:10;;;;;;;37.50;30.23;;;12.20;99.90;;;;;;5116705;28;20618;-89
2021/04/02 00:32:36;;;;;;;38.83;29.93;;;12.20;99.90;;;;;;5119970;27;20705;-87
2021/04/02 00:35:04;;;;;;;37.07;28.83;;;12.40;99.90;;;;;;5119822;27;20653;-88
2021/04/02 00:37:30;;;;;;;39.33;31.70;;;12.30;99.90;;;;;;5122970;27;20628;-89
2021/04/02 00:39:57;;;;;;;36.63;28.20;;;12.10;99.90;;;;;;5123149;27;20739;-88
2021/04/02 00:42:23;;;;;;;30.93;27.63;;;11.90;99.90;;;;;;5126258;27;20626;-89
2021/04/02 00:44:50;;;;;;;38.20;29.30;;;11.80;99.90;;;;;;5120521;27;20623;-89
2021/04/02 00:47:16;;;;;;;34.20;29.90;;;11.70;99.90;;;;;;5127049;27;20657;-89
2021/04/02 00:49:43;;;;;;;43.67;31.50;;;11.60;99.90;;;;;;5124517;27;20683;-89
2021/04/02 00:52:10;;;;;;;41.27;30.80;;;11.60;99.90;;;;;;5125980;27;20677;-87
2021/04/02 00:54:36;;;;;;;39.57;33.77;;;11.50;99.90;;;;;;5120982;27;21097;-88
2021/04/02 00:57:03;;;;;;;35.83;31.83;;;11.50;99.90;;;;;;5119142;27;20585;-88
2021/04/02 00:59:30;;;;;;;37.77;33.67;;;11.40;99.90;;;;;;5117855;27;20622;-87
2021/04/02 01:01:56;;;;;;;40.90;34.13;;;11.40;99.90;;;;;;5125060;27;20650;-88
2021/04/02 01:04:22;;;;;;;38.50;32.13;;;11.40;99.90;;;;;;5120616;27;20626;-87
2021/04/02 01:06:48;;;;;;;37.60;31.00;;;11.70;99.90;;;;;;5125397;27;20618;-89
2021/04/02 01:09:16;;;;;;;38.30;31.37;;;11.70;99.90;;;;;;5141573;27;20657;-89
2021/04/02 01:11:42;;;;;;;36.67;32.77;;;11.90;99.90;;;;;;5139503;27;20663;-88
2021/04/02 01:14:08;;;;;;;39.20;32.97;;;11.80;99.90;;;;;;5123682;27;20615;-90
2021/04/02 01:16:36;;;;;;;41.13;33.73;;;11.90;99.90;;;;;;5121247;27;20699;-88
2021/04/02 01:19:10;;;;;;;36.57;32.53;;;11.90;99.90;;;;;;5116058;27;20665;-88
2021/04/02 01:21:41;;;;;;;37.30;32.77;;;11.70;99.90;;;;;;5117514;27;20656;-88
2021/04/02 01:24:34;;;;;;;40.40;34.43;;;11.60;99.90;;;;;;5124805;27;20988;-88
2021/04/02 01:27:21;;;;;;;35.97;32.10;;;11.50;99.90;;;;;;5122646;27;20623;-89
2021/04/02 01:29:54;;;;;;;36.77;32.97;;;11.40;99.90;;;;;;5111133;27;20653;-89
2021/04/02 01:32:23;;;;;;;37.07;33.07;;;11.30;99.90;;;;;;5125802;27;20675;-89
2021/04/02 01:34:50;;;;;;;36.57;32.27;;;11.40;99.90;;;;;;5130289;27;20619;-90
2021/04/02 01:37:22;;;;;;;38.00;31.17;;;11.30;99.90;;;;;;5125650;27;20630;-89
2021/04/02 01:39:50;;;;;;;35.07;31.07;;;11.10;99.90;;;;;;5121753;27;20648;-90
2021/04/02 01:42:20;;;;;;;37.67;31.50;;;11.00;99.90;;;;;;5115824;27;21229;-89
2021/04/02 01:44:52;;;;;;;32.93;29.63;;;11.00;99.90;;;;;;5125187;27;21214;-89
2021/04/02 01:47:19;;;;;;;34.33;30.63;;;10.90;99.90;;;;;;5121757;27;20637;-91
2021/04/02 01:49:47;;;;;;;36.70;29.90;;;10.80;99.90;;;;;;5117830;27;20972;-88
2021/04/02 01:52:14;;;;;;;31.00;27.77;;;10.80;99.90;;;;;;5122274;27;20654;-89
2021/04/02 01:54:42;;;;;;;33.43;29.30;;;10.80;99.90;;;;;;5118240;27;20781;-90
2021/04/02 01:57:10;;;;;;;32.77;29.33;;;10.80;99.90;;;;;;5124801;27;20650;-88
2021/04/02 01:59:38;;;;;;;32.27;28.77;;;10.70;99.90;;;;;;5140167;27;20611;-88
2021/04/02 02:02:07;;;;;;;30.37;27.07;;;10.60;99.90;;;;;;5140734;27;20614;-87
2021/04/02 02:04:34;;;;;;;33.40;27.57;;;10.60;99.90;;;;;;5140060;27;20622;-88
2021/04/02 02:07:04;;;;;;;31.03;25.60;;;10.60;99.90;;;;;;5140794;27;21212;-88
2021/04/02 02:09:34;;;;;;;27.57;24.67;;;10.70;99.90;;;;;;5139577;27;20633;-88
2021/04/02 02:12:05;;;;;;;24.90;22.40;;;10.70;99.90;;;;;;5142990;27;20654;-87
2021/04/02 02:14:33;;;;;;;23.00;20.60;;;10.60;99.90;;;;;;5144236;27;20650;-88
2021/04/02 02:17:04;;;;;;;23.00;20.27;;;10.60;99.90;;;;;;5149625;27;20644;-88
2021/04/02 02:19:35;;;;;;;25.07;20.00;;;10.60;99.90;;;;;;5143527;27;20627;-89
2021/04/02 02:22:03;;;;;;;22.53;17.90;;;10.50;99.90;;;;;;5138260;27;20616;-90
2021/04/02 02:24:30;;;;;;;17.60;16.00;;;10.50;99.90;;;;;;5141894;27;20721;-88
2021/04/02 02:26:56;;;;;;;16.00;14.13;;;10.60;99.90;;;;;;5146248;27;20901;-86
2021/04/02 02:29:24;;;;;;;15.67;13.97;;;10.60;99.90;;;;;;5147906;27;20743;-87
2021/04/02 02:31:51;;;;;;;15.27;13.20;;;10.60;99.90;;;;;;5145156;27;20693;-88
2021/04/02 02:34:18;;;;;;;15.50;12.80;;;10.50;99.90;;;;;;5146419;27;20631;-90
2021/04/02 02:36:45;;;;;;;14.50;12.90;;;10.50;99.90;;;;;;5144026;27;20647;-89
2021/04/02 02:39:14;;;;;;;15.43;12.70;;;10.50;99.90;;;;;;5131332;27;20615;-89
2021/04/02 02:41:41;;;;;;;12.37;11.07;;;10.40;99.90;;;;;;5127813;27;20587;-87
2021/04/02 02:44:08;;;;;;;12.37;11.07;;;10.30;99.90;;;;;;5126642;27;21279;-87
2021/04/02 02:46:34;;;;;;;11.97;10.53;;;10.30;99.90;;;;;;5124028;27;20632;-88
2021/04/02 02:49:08;;;;;;;14.27;10.17;;;10.30;99.90;;;;;;5123694;27;20980;-88
2021/04/02 02:51:36;;;;;;;14.93;12.40;;;10.30;99.90;;;;;;5127310;27;21153;-90
2021/04/02 02:54:06;;;;;;;12.10;10.90;;;10.30;99.90;;;;;;5127009;27;20643;-88
2021/04/02 02:56:35;;;;;;;12.83;11.63;;;10.30;99.90;;;;;;5120159;27;20679;-87
2021/04/02 02:59:03;;;;;;;12.03;10.93;;;10.20;99.90;;;;;;5125528;27;20742;-89
2021/04/02 03:01:33;;;;;;;13.13;10.87;;;10.20;99.90;;;;;;5118216;27;20634;-89
2021/04/02 03:04:02;;;;;;;13.90;12.60;;;10.10;99.90;;;;;;5119597;27;20635;-88
2021/04/02 03:06:33;;;;;;;11.60;10.47;;;10.10;99.90;;;;;;5122756;27;21244;-89
2021/04/02 03:09:01;;;;;;;14.00;11.50;;;10.00;99.90;;;;;;5119388;27;20940;-88
2021/04/02 03:11:29;;;;;;;12.10;11.00;;;9.90;99.90;;;;;;5120346;27;21201;-87
2021/04/02 03:13:56;;;;;;;13.33;11.20;;;9.90;99.90;;;;;;5123168;27;21260;-88
2021/04/02 03:16:26;;;;;;;14.80;13.30;;;9.90;99.90;;;;;;5122258;27;20690;-88
2021/04/02 03:18:55;;;;;;;15.40;13.80;;;9.80;99.90;;;;;;5123808;27;21266;-89
2021/04/02 03:21:22;;;;;;;13.97;12.53;;;9.80;99.90;;;;;;5113878;27;20611;-89
2021/04/02 03:23:50;;;;;;;13.80;12.40;;;9.80;99.90;;;;;;5128002;28;20661;-89
2021/04/02 03:26:18;;;;;;;13.77;12.30;;;9.80;99.90;;;;;;5121002;28;20622;-89
2021/04/02 03:28:47;;;;;;;13.90;11.70;;;9.70;99.90;;;;;;5129957;28;20583;-88
2021/04/02 03:31:15;;;;;;;14.27;10.97;;;9.70;99.90;;;;;;5142779;28;21188;-89
2021/04/02 03:33:50;;;;;;;13.40;10.77;;;9.60;99.90;;;;;;5142682;28;20677;-88
2021/04/02 03:36:19;;;;;;;14.20;12.80;;;9.60;99.90;;;;;;5121617;28;20614;-88
2021/04/02 03:38:47;;;;;;;12.27;11.03;;;9.50;99.90;;;;;;5122127;28;20621;-88
2021/04/02 03:41:16;;;;;;;15.60;11.77;;;9.50;99.90;;;;;;5121505;28;20708;-87
2021/04/02 03:43:45;;;;;;;12.60;10.97;;;9.40;99.90;;;;;;5119360;28;20980;-87
2021/04/02 03:46:14;;;;;;;11.00;9.90;;;9.40;99.90;;;;;;5121525;28;20629;-88
2021/04/02 03:48:41;;;;;;;10.50;9.43;;;9.30;99.90;;;;;;5134615;27;20667;-88
2021/04/02 03:51:09;;;;;;;10.57;8.90;;;9.30;99.90;;;;;;5126149;27;21175;-88
2021/04/02 03:53:41;;;;;;;10.17;9.00;;;9.30;99.90;;;;;;5116349;28;20701;-88
2021/04/02 03:56:11;;;;;;;10.60;9.60;;;9.20;99.90;;;;;;5123517;28;20931;-88
2021/04/02 03:58:39;;;;;;;10.83;9.50;;;9.10;99.90;;;;;;5121716;28;21171;-88
2021/04/02 04:01:09;;;;;;;11.27;10.13;;;9.00;99.90;;;;;;5122424;28;21117;-88
2021/04/02 04:03:38;;;;;;;9.60;8.70;;;9.10;99.90;;;;;;5117385;27;20646;-87
2021/04/02 04:06:07;;;;;;;10.27;8.07;;;9.00;99.90;;;;;;5115495;28;20678;-89
2021/04/02 04:08:34;;;;;;;12.10;8.27;;;9.00;99.90;;;;;;5123942;27;21220;-88
2021/04/02 04:11:02;;;;;;;10.97;8.93;;;9.00;99.90;;;;;;5128697;27;20614;-89
2021/04/02 04:13:31;;;;;;;10.83;8.60;;;9.00;99.90;;;;;;5125156;27;20651;-88
2021/04/02 04:16:00;;;;;;;7.17;6.47;;;8.90;99.90;;;;;;5117196;27;20631;-88
2021/04/02 04:18:28;;;;;;;8.37;7.57;;;8.90;99.90;;;;;;5119193;27;20630;-88
2021/04/02 04:20:58;;;;;;;8.37;6.87;;;8.80;99.90;;;;;;5125430;27;21192;-88
2021/04/02 04:23:25;;;;;;;9.90;7.63;;;8.80;99.90;;;;;;5128029;27;21082;-87
2021/04/02 04:25:54;;;;;;;8.63;7.70;;;8.70;99.90;;;;;;5129218;27;21157;-87
2021/04/02 04:28:23;;;;;;;13.30;7.83;;;8.60;99.90;;;;;;5125829;27;20665;-88
2021/04/02 04:30:52;;;;;;;7.93;7.13;;;8.60;99.90;;;;;;5120680;27;20676;-87
2021/04/02 04:33:19;;;;;;;7.53;6.83;;;8.50;99.90;;;;;;5125142;27;20646;-87
2021/04/02 04:35:46;;;;;;;7.93;6.80;;;8.40;99.90;;;;;;5127101;27;20642;-86
2021/04/02 04:38:15;;;;;;;7.57;6.80;;;8.40;99.90;;;;;;5123537;27;20657;-85
2021/04/02 04:40:43;;;;;;;8.67;6.57;;;8.30;99.90;;;;;;5125963;27;20610;-85
2021/04/02 04:43:12;;;;;;;8.30;7.13;;;8.30;99.90;;;;;;5125015;27;20662;-86
2021/04/02 04:45:39;;;;;;;6.93;6.10;;;8.30;99.90;;;;;;5125037;27;21004;-85
2021/04/02 04:48:06;;;;;;;6.30;5.70;;;8.30;99.90;;;;;;5121207;27;20666;-84
2021/04/02 04:50:34;;;;;;;6.23;5.33;;;8.20;99.90;;;;;;5119423;27;20968;-85
2021/04/02 04:53:02;;;;;;;5.40;4.90;;;8.20;99.90;;;;;;5122061;27;20658;-84
2021/04/02 04:55:32;;;;;;;7.13;5.10;;;8.10;99.90;;;;;;5125660;27;21187;-85
2021/04/02 04:58:00;;;;;;;8.03;6.73;;;8.10;99.90;;;;;;5125885;27;20649;-85
2021/04/02 05:00:30;;;;;;;7.20;5.80;;;8.10;99.90;;;;;;5122005;27;20633;-85
2021/04/02 05:02:58;;;;;;;6.33;5.73;;;8.00;99.90;;;;;;5124234;27;21204;-85
2021/04/02 05:05:27;;;;;;;7.10;5.60;;;8.00;99.90;;;;;;5123096;27;20618;-86
2021/04/02 05:07:57;;;;;;;6.83;5.57;;;8.00;99.90;;;;;;5121426;27;21009;-84
2021/04/02 05:10:23;;;;;;;6.50;5.83;;;7.90;99.90;;;;;;5125669;27;20671;-86
2021/04/02 05:12:52;;;;;;;6.60;5.43;;;7.80;99.90;;;;;;5122721;27;20625;-86
2021/04/02 05:15:20;;;;;;;6.87;5.80;;;7.80;99.90;;;;;;5124534;27;20992;-86
2021/04/02 05:17:47;;;;;;;7.83;5.80;;;7.80;99.90;;;;;;5128275;27;20722;-85
2021/04/02 05:20:14;;;;;;;6.27;5.70;;;7.80;99.90;;;;;;5126622;27;20626;-85
2021/04/02 05:22:40;;;;;;;6.83;5.50;;;7.70;99.90;;;;;;5128140;27;20658;-85
2021/04/02 05:25:08;;;;;;;6.03;5.43;;;7.60;99.90;;;;;;5136433;27;20626;-85
2021/04/02 05:27:36;;;;;;;6.80;6.20;;;7.60;99.90;;;;;;5131524;27;20643;-85
2021/04/02 05:30:07;;;;;;;7.07;6.47;;;7.60;99.90;;;;;;5127751;27;20633;-86
2021/04/02 05:32:33;;;;;;;6.53;5.63;;;7.70;99.90;;;;;;5129031;27;20624;-87
2021/04/02 05:35:00;;;;;;;10.67;7.43;;;7.70;99.90;;;;;;5125351;27;20641;-86
2021/04/02 05:37:26;;;;;;;6.93;6.23;;;7.70;99.90;;;;;;5119940;27;20662;-86
2021/04/02 05:39:54;;;;;;;6.03;5.50;;;7.70;99.90;;;;;;5122128;27;20644;-86
2021/04/02 05:42:23;;;;;;;7.10;6.40;;;7.70;99.90;;;;;;5123334;27;20662;-86
2021/04/02 05:44:52;;;;;;;6.87;6.27;;;7.70;99.90;;;;;;5117634;27;20627;-86
2021/04/02 05:47:19;;;;;;;6.47;5.80;;;7.70;99.90;;;;;;5120715;27;20651;-86
2021/04/02 05:49:46;;;;;;;7.67;6.77;;;7.70;99.90;;;;;;5124092;27;20851;-86
2021/04/02 05:52:13;;;;;;;7.40;6.70;;;7.70;99.90;;;;;;5133862;27;20631;-85
2021/04/02 05:54:43;;;;;;;8.63;7.83;;;7.80;99.90;;;;;;5143183;27;20755;-85
2021/04/02 05:57:10;;;;;;;7.67;6.97;;;7.80;99.90;;;;;;5136516;27;20665;-86
2021/04/02 05:59:38;;;;;;;7.67;6.97;;;7.90;99.90;;;;;;5120354;27;20619;-84
2021/04/02 06:02:05;;;;;;;6.97;6.27;;;8.00;99.90;;;;;;5122440;27;20634;-85
2021/04/02 06:04:32;;;;;;;7.50;6.90;;;7.90;99.90;;;;;;5126468;27;20633;-84
2021/04/02 06:06:58;;;;;;;7.07;6.27;;;8.00;99.90;;;;;;5118150;27;20674;-86
2021/04/02 06:09:25;;;;;;;7.33;6.63;;;8.00;99.90;;;;;;5121360;27;20642;-85
2021/04/02 06:11:52;;;;;;;8.27;6.67;;;8.10;99.90;;;;;;5119447;27;20607;-85
2021/04/02 06:14:18;;;;;;;9.20;7.03;;;8.20;99.90;;;;;;5122155;27;20614;-86
2021/04/02 06:16:48;;;;;;;7.37;6.67;;;8.30;99.90;;;;;;5120603;27;20626;-85
2021/04/02 06:19:17;;;;;;;7.10;6.53;;;8.40;99.90;;;;;;5128669;27;20629;-87
2021/04/02 06:21:48;;;;;;;7.80;7.10;;;8.50;99.90;;;;;;5120559;27;20967;-87
2021/04/02 06:24:16;;;;;;;7.30;6.60;;;8.60;99.90;;;;;;5123308;27;20623;-87
2021/04/02 06:26:57;;;;;;;8.20;6.27;;;8.70;99.90;;;;;;5129525;27;20661;-85
2021/04/02 06:29:27;;;;;;;8.40;6.30;;;8.80;99.90;;;;;;5128735;27;21195;-86
2021/04/02 06:31:53;;;;;;;7.60;7.00;;;8.90;99.90;;;;;;5124885;27;20666;-87
2021/04/02 06:34:21;;;;;;;6.80;6.20;;;9.00;99.90;;;;;;5122015;27;20661;-86
2021/04/02 06:36:50;;;;;;;7.63;6.50;;;9.10;99.90;;;;;;5123170;27;20638;-86
2021/04/02 06:39:17;;;;;;;9.80;7.60;;;9.10;99.90;;;;;;5121511;27;20705;-86
2021/04/02 06:41:46;;;;;;;7.70;6.90;;;9.10;99.90;;;;;;5123684;27;20646;-86
2021/04/02 06:44:12;;;;;;;13.00;6.63;;;9.20;99.90;;;;;;5119773;27;21239;-86
2021/04/02 06:46:41;;;;;;;7.00;6.30;;;9.20;99.90;;;;;;5121181;27;20629;-87
2021/04/02 06:49:11;;;;;;;7.67;6.93;;;9.30;99.90;;;;;;5116914;27;20723;-86
2021/04/02 06:51:39;;;;;;;9.53;7.63;;;9.30;99.90;;;;;;5117645;27;20643;-85
2021/04/02 06:54:07;;;;;;;7.53;6.90;;;9.30;99.90;;;;;;5120015;27;20607;-85
2021/04/02 06:56:35;;;;;;;8.23;7.30;;;9.20;99.90;;;;;;5123747;27;20630;-84
2021/04/02 06:59:03;;;;;;;11.80;7.53;;;9.10;99.90;;;;;;5119970;27;20646;-85
2021/04/02 07:01:33;;;;;;;8.20;7.50;;;9.30;99.90;;;;;;5118449;27;20621;-85
2021/04/02 07:04:00;;;;;;;10.87;8.30;;;9.70;99.90;;;;;;5120539;27;21130;-85
2021/04/02 07:06:27;;;;;;;8.77;8.07;;;9.70;99.90;;;;;;5115860;27;21007;-86
2021/04/02 07:08:55;;;;;;;7.90;7.10;;;9.60;99.90;;;;;;5121936;27;20649;-83
2021/04/02 07:11:26;;;;;;;9.67;7.23;;;9.70;99.90;;;;;;5119634;27;20675;-84
2021/04/02 07:13:53;;;;;;;7.87;7.13;;;9.70;99.90;;;;;;5122753;27;20626;-85
2021/04/02 07:16:21;;;;;;;8.70;7.80;;;9.80;99.90;;;;;;5122659;27;21074;-86
2021/04/02 07:18:49;;;;;;;8.83;7.93;;;9.80;99.90;;;;;;5120335;27;20654;-86
2021/04/02 07:21:19;;;;;;;8.20;7.40;;;9.90;99.90;;;;;;5122447;27;20980;-86
2021/04/02 07:23:46;;;;;;;9.80;8.30;;;9.90;99.90;;;;;;5124248;28;20999;-85
2021/04/02 07:26:14;;;;;;;7.60;7.00;;;9.90;99.90;;;;;;5117700;28;20633;-85
2021/04/02 07:28:45;;;;;;;8.73;7.93;;;10.00;99.50;;;;;;5121671;28;20696;-87
2021/04/02 07:31:12;;;;;;;8.17;7.37;;;10.10;99.20;;;;;;5123423;28;20630;-86
2021/04/02 07:33:42;;;;;;;9.50;8.57;;;10.30;99.30;;;;;;5132393;28;20640;-86
2021/04/02 07:36:12;;;;;;;9.10;8.30;;;10.30;99.50;;;;;;5133789;28;20837;-88
2021/04/02 07:38:39;;;;;;;9.20;8.30;;;10.20;99.50;;;;;;5125592;27;20654;-86
2021/04/02 07:41:11;;;;;;;8.80;8.07;;;10.30;99.10;;;;;;5122975;28;20645;-87
2021/04/02 07:43:48;;;;;;;9.30;8.60;;;10.50;98.90;;;;;;5115491;27;20678;-87
2021/04/02 07:46:17;;;;;;;10.73;7.40;;;10.60;98.80;;;;;;5123709;27;20665;-87
2021/04/02 07:48:49;;;;;;;8.60;7.97;;;10.40;99.10;;;;;;5124216;27;20657;-87
2021/04/02 07:51:15;;;;;;;9.00;8.27;;;10.30;98.90;;;;;;5128611;27;20606;-89
2021/04/02 07:53:45;;;;;;;10.00;9.10;;;10.50;98.20;;;;;;5127391;27;20643;-85
2021/04/02 07:56:13;;;;;;;10.90;9.20;;;10.70;98.30;;;;;;5127489;27;20773;-87
2021/04/02 07:58:41;;;;;;;9.67;8.80;;;10.90;98.00;;;;;;5136032;27;20664;-85
2021/04/02 08:01:09;;;;;;;9.60;8.87;;;10.80;98.20;;;;;;5129552;27;21238;-88
2021/04/02 08:03:35;;;;;;;9.73;8.87;;;10.90;97.90;;;;;;5129440;27;20623;-89
2021/04/02 08:06:07;;;;;;;11.07;10.07;;;11.10;98.00;;;;;;5130895;27;20629;-89
2021/04/02 08:08:42;;;;;;;11.07;10.07;;;11.40;97.10;;;;;;5126302;27;20664;-87
2021/04/02 08:11:14;;;;;;;9.50;8.70;;;11.40;97.60;;;;;;5131602;27;20717;-88
2021/04/02 08:13:52;;;;;;;9.93;8.93;;;11.60;96.80;;;;;;5153852;27;20650;-89
2021/04/02 08:16:53;;;;;;;9.97;9.07;;;11.70;96.60;;;;;;5148838;27;20615;-87
2021/04/02 08:19:25;;;;;;;10.20;9.40;;;11.70;96.80;;;;;;5120950;27;21088;-87
2021/04/02 08:21:54;;;;;;;10.30;9.27;;;11.80;96.50;;;;;;5130505;27;20699;-86
2021/04/02 08:24:22;;;;;;;10.47;9.47;;;11.60;96.00;;;;;;5126792;27;20662;-87
2021/04/02 08:26:49;;;;;;;10.27;9.07;;;11.60;96.40;;;;;;5125031;27;20630;-88
2021/04/02 08:29:17;;;;;;;10.03;9.20;;;11.90;96.70;;;;;;5124594;27;20661;-87
2021/04/02 08:31:46;;;;;;;11.87;10.73;;;11.80;96.30;;;;;;5123785;27;20627;-88
2021/04/02 08:34:19;;;;;;;10.90;9.80;;;11.80;96.60;;;;;;5124985;27;20631;-87
2021/04/02 08:36:49;;;;;;;12.43;10.33;;;11.80;96.80;;;;;;5125466;27;20615;-87
2021/04/02 08:39:18;;;;;;;10.50;9.20;;;12.20;96.10;;;;;;5123477;27;20905;-87
2021/04/02 08:41:45;;;;;;;10.07;9.13;;;12.20;96.00;;;;;;5128110;27;20658;-88
2021/04/02 08:44:11;;;;;;;9.97;8.97;;;12.20;95.40;;;;;;5125868;27;21296;-87
2021/04/02 08:46:41;;;;;;;8.80;8.10;;;12.40;95.70;;;;;;5126601;27;20681;-88
2021/04/02 08:49:09;;;;;;;9.67;8.77;;;12.30;96.00;;;;;;5125607;27;20684;-87
2021/04/02 08:51:36;;;;;;;10.63;9.73;;;12.40;95.90;;;;;;5127044;27;20655;-86
2021/04/02 08:54:04;;;;;;;11.70;10.10;;;12.80;95.20;;;;;;5120342;27;20589;-87
2021/04/02 08:56:32;;;;;;;10.90;9.53;;;12.70;95.50;;;;;;5129241;27;20622;-86
2021/04/02 08:59:01;;;;;;;11.27;9.43;;;12.90;94.90;;;;;;5125866;27;20721;-87
2021/04/02 09:01:29;;;;;;;11.20;10.10;;;13.20;95.10;;;;;;5123014;27;20637;-87
2021/04/02 09:03:56;;;;;;;11.20;9.93;;;12.80;95.10;;;;;;5125293;27;20976;-87
2021/04/02 09:06:23;;;;;;;11.30;10.20;;;13.10;94.80;;;;;;5124506;27;20630;-88
2021/04/02 09:08:50;;;;;;;11.77;10.67;;;12.80;94.80;;;;;;5118988;27;21230;-87
2021/04/02 09:11:16;;;;;;;12.13;10.83;;;12.80;94.80;;;;;;5120781;27;20630;-87
2021/04/02 09:13:45;;;;;;;10.67;9.67;;;13.10;94.80;;;;;;5127898;27;20606;-87
2021/04/02 09:16:14;;;;;;;11.70;10.60;;;13.00;94.60;;;;;;5119962;27;20711;-88
2021/04/02 09:18:48;;;;;;;10.97;9.80;;;13.30;94.20;;;;;;5118755;27;20647;-87
2021/04/02 09:21:16;;;;;;;10.47;9.57;;;13.10;94.50;;;;;;5122730;27;20598;-87
2021/04/02 09:23:43;;;;;;;14.00;9.37;;;13.50;93.70;;;;;;5122853;27;20959;-87
2021/04/02 09:26:10;;;;;;;11.93;10.60;;;13.60;93.50;;;;;;5127547;27;20635;-87
2021/04/02 09:28:38;;;;;;;11.03;9.93;;;13.90;93.50;;;;;;5118387;27;21055;-87
2021/04/02 09:31:17;;;;;;;10.60;9.70;;;14.00;92.70;;;;;;5123150;27;20629;-87
2021/04/02 09:33:45;;;;;;;10.83;9.93;;;13.80;93.20;;;;;;5126894;27;21234;-86
2021/04/02 09:36:13;;;;;;;11.13;10.10;;;13.60;93.50;;;;;;5127244;27;20681;-88
2021/04/02 09:38:40;;;;;;;10.30;9.40;;;13.00;94.10;;;;;;5133218;27;21279;-87
2021/04/02 09:41:09;;;;;;;11.47;10.37;;;12.80;93.70;;;;;;5129674;27;20625;-89
2021/04/02 09:43:44;;;;;;;11.67;10.67;;;12.90;94.20;;;;;;5126468;27;20658;-88
2021/04/02 09:46:26;;;;;;;10.63;9.57;;;13.80;93.00;;;;;;5129099;27;20679;-89
2021/04/02 09:48:53;;;;;;;11.10;10.00;;;13.60;93.20;;;;;;5130042;27;20650;-88
2021/04/02 09:51:19;;;;;;;11.20;10.03;;;13.30;93.60;;;;;;5125728;27;20683;-87
2021/04/02 09:53:45;;;;;;;10.90;9.80;;;13.40;93.20;;;;;;5119613;27;20669;-88
2021/04/02 09:56:11;;;;;;;10.97;9.63;;;13.00;93.50;;;;;;5133168;27;21425;-87
2021/04/02 09:58:38;;;;;;;10.00;9.20;;;13.20;93.50;;;;;;5129980;27;20622;-87
2021/04/02 10:01:06;;;;;;;9.87;8.97;;;13.10;93.10;;;;;;5129584;27;20603;-88
2021/04/02 10:03:34;;;;;;;10.60;9.60;;;13.80;92.30;;;;;;5130206;27;21032;-87
2021/04/02 10:06:01;;;;;;;9.13;8.30;;;14.10;90.90;;;;;;5126684;27;20614;-89
2021/04/02 10:08:30;;;;;;;10.90;9.90;;;14.50;90.40;;;;;;5130161;27;20631;-88
2021/04/02 10:10:56;;;;;;;10.70;9.70;;;15.00;89.70;;;;;;5131912;27;20731;-87
2021/04/02 10:13:22;;;;;;;11.00;8.93;;;15.00;87.90;;;;;;5132179;27;20642;-88
2021/04/02 10:15:49;;;;;;;9.50;8.67;;;14.90;88.60;;;;;;5128472;27;20611;-89
2021/04/02 10:18:17;;;;;;;12.80;9.50;;;14.60;89.40;;;;;;5131260;27;20643;-88
2021/04/02 10:20:43;;;;;;;10.40;9.30;;;14.80;88.60;;;;;;5130998;27;20683;-89
2021/04/02 10:23:10;;;;;;;10.80;9.80;;;15.20;87.10;;;;;;5127781;27;20649;-89
2021/04/02 10:25:38;;;;;;;10.67;9.87;;;15.10;87.80;;;;;;5124957;27;20989;-89
2021/04/02 10:28:05;;;;;;;8.73;7.87;;;14.50;86.70;;;;;;5130295;27;20714;-89
2021/04/02 10:30:31;;;;;;;11.90;9.10;;;14.60;85.60;;;;;;5124229;27;21119;-89
2021/04/02 10:32:58;;;;;;;8.60;7.90;;;15.00;86.60;;;;;;5124685;27;20630;-88
2021/04/02 10:35:29;;;;;;;9.30;8.40;;;15.60;86.40;;;;;;5127139;27;20614;-88
2021/04/02 10:37:56;;;;;;;9.60;8.80;;;15.80;83.30;;;;;;5123836;27;20679;-89
2021/04/02 10:40:23;;;;;;;9.43;8.53;;;15.70;83.20;;;;;;5126831;27;20620;-90
2021/04/02 10:42:49;;;;;;;11.40;10.40;;;15.20;84.00;;;;;;5130360;27;20751;-89
2021/04/02 10:45:17;;;;;;;9.67;8.97;;;14.60;85.70;;;;;;5134096;27;20683;-87
2021/04/02 10:47:43;;;;;;;8.97;8.27;;;14.90;86.60;;;;;;5134446;27;20715;-88
2021/04/02 10:50:11;;;;;;;9.70;8.90;;;15.20;85.10;;;;;;5140092;27;20637;-87
2021/04/02 10:52:38;;;;;;;9.87;8.87;;;15.40;84.70;;;;;;5127266;27;20630;-88
2021/04/02 10:55:06;;;;;;;10.70;9.70;;;15.30;84.00;;;;;;5123350;27;20726;-88
2021/04/02 10:57:32;;;;;;;9.20;8.50;;;15.20;83.20;;;;;;5124586;27;20615;-86
2021/04/02 10:59:59;;;;;;;10.07;9.07;;;15.60;83.70;;;;;;5123161;27;20674;-88
2021/04/02 11:02:26;;;;;;;10.90;9.73;;;16.50;83.60;;;;;;5130496;27;20675;-89
2021/04/02 11:04:54;;;;;;;9.60;8.70;;;17.30;81.10;;;;;;5126067;27;20651;-87
2021/04/02 11:07:20;;;;;;;9.73;8.73;;;16.60;79.60;;;;;;5129689;27;20646;-88
2021/04/02 11:09:48;;;;;;;10.50;8.53;;;15.90;80.80;;;;;;5121867;27;20634;-88
2021/04/02 11:12:15;;;;;;;10.43;9.27;;;15.60;82.60;;;;;;5129167;27;20634;-89
2021/04/02 11:14:41;;;;;;;9.50;8.80;;;15.90;81.60;;;;;;5125866;27;20749;-88
2021/04/02 11:17:08;;;;;;;8.77;7.97;;;16.40;80.50;;;;;;5124429;27;20734;-88
2021/04/02 11:19:34;;;;;;;8.50;7.70;;;16.90;79.00;;;;;;5127465;27;20611;-89
2021/04/02 11:22:00;;;;;;;8.80;8.03;;;17.60;76.90;;;;;;5119218;27;20684;-88
2021/04/02 11:24:27;;;;;;;7.60;7.00;;;17.60;75.60;;;;;;5125084;27;20777;-89
2021/04/02 11:26:55;;;;;;;8.60;7.77;;;17.00;76.70;;;;;;5122962;28;20628;-88
2021/04/02 11:29:22;;;;;;;9.20;8.30;;;16.90;79.20;;;;;;5115993;28;20641;-88
2021/04/02 11:31:48;;;;;;;8.67;7.83;;;17.00;77.80;;;;;;5122714;28;20623;-88
2021/04/02 11:34:19;;;;;;;10.03;9.03;;;17.00;76.10;;;;;;5121565;28;20963;-90
2021/04/02 11:36:45;;;;;;;7.37;6.77;;;16.80;75.10;;;;;;5124089;28;20631;-87
2021/04/02 11:39:13;;;;;;;8.77;7.90;;;17.50;73.40;;;;;;5120552;28;21661;-90
2021/04/02 11:41:40;;;;;;;9.03;8.27;;;17.80;73.80;;;;;;5124649;27;20720;-89
2021/04/02 11:44:09;;;;;;;8.40;7.70;;;17.50;71.60;;;;;;5119877;28;20674;-89
2021/04/02 11:46:36;;;;;;;8.80;8.00;;;17.30;70.80;;;;;;5121949;28;20610;-88
2021/04/02 11:49:04;;;;;;;9.73;7.83;;;17.50;70.20;;;;;;5120514;28;20618;-90
2021/04/02 11:51:30;;;;;;;7.60;7.00;;;17.10;70.70;;;;;;5125867;28;20705;-89
2021/04/02 11:53:57;;;;;;;8.03;7.43;;;17.60;71.70;;;;;;5119213;28;20741;-87
2021/04/02 11:56:23;;;;;;;7.97;7.30;;;17.30;70.20;;;;;;5123896;28;21075;-90
2021/04/02 11:58:50;;;;;;;8.07;7.20;;;17.90;70.50;;;;;;5129779;27;20931;-90
2021/04/02 12:01:17;;;;;;;8.07;7.37;;;18.20;69.10;;;;;;5126636;28;20673;-89
2021/04/02 12:03:43;;;;;;;8.57;7.97;;;18.20;66.70;;;;;;5123306;27;20658;-88
2021/04/02 12:06:09;;;;;;;8.23;7.53;;;18.60;67.10;;;;;;5124417;28;20633;-88
2021/04/02 12:08:36;;;;;;;8.27;7.43;;;18.70;65.40;;;;;;5124609;28;21227;-90
2021/04/02 12:11:02;;;;;;;7.30;6.70;;;18.40;63.10;;;;;;5123424;28;20642;-90
2021/04/02 12:13:29;;;;;;;6.60;6.10;;;18.30;63.80;;;;;;5116455;28;20851;-90
2021/04/02 12:16:01;;;;;;;6.53;5.93;;;18.30;62.80;;;;;;5127195;27;20729;-90
2021/04/02 12:18:29;;;;;;;6.90;6.30;;;18.80;62.50;;;;;;5125772;28;20964;-92
2021/04/02 12:20:55;;;;;;;6.33;5.77;;;18.00;62.10;;;;;;5127883;28;20607;-90
2021/04/02 12:23:23;;;;;;;7.20;6.50;;;18.70;61.30;;;;;;5120639;27;20706;-90
2021/04/02 12:25:49;;;;;;;6.70;6.20;;;17.80;60.50;;;;;;5118002;27;20697;-92
2021/04/02 12:28:16;;;;;;;6.27;5.67;;;17.90;61.30;;;;;;5121482;27;20662;-90
2021/04/02 12:30:43;;;;;;;6.40;5.80;;;17.50;61.70;;;;;;5133014;27;20650;-90
2021/04/02 12:33:09;;;;;;;9.60;6.70;;;18.50;61.90;;;;;;5131372;27;20726;-90
2021/04/02 12:35:37;;;;;;;6.40;5.97;;;19.10;59.90;;;;;;5125998;27;20828;-91
2021/04/02 12:38:08;;;;;;;6.00;5.60;;;19.00;60.20;;;;;;5130653;27;20618;-90
2021/04/02 12:40:37;;;;;;;5.57;5.13;;;19.90;59.20;;;;;;5133504;27;20630;-91
2021/04/02 12:43:06;;;;;;;7.23;5.43;;;20.80;57.20;;;;;;5129578;27;20728;-90
2021/04/02 12:45:32;;;;;;;6.32;5.82;;;19.60;56.50;;;;;;5127483;27;20769;-91